sensor_id;sensor_type;location;lat;lon;timestamp;temperature;humidity
18444;DHT22;9350;53.176;8.194;2023-06-22T00:02:00;19.70;99.90
18444;DHT22;9350;53.176;8.194;2023-06-22T00:04:27;19.70;99.90
18444;DHT22;9350;53.176;8.194;2023-06-22T00:06:54;19.70;99.90
18444;DHT22;9350;53.176;8.194;2023-06-22T00:09:22;19.60;99.90
18444;DHT22;9350;53.176;8.194;2023-06-22T00:11:48;19.60;99.90
18444;DHT22;9350;53.176;8.194;2023-06-22T00:14:15;19.70;99.90
18444;DHT22;9350;53.176;8.194;2023-06-22T00:16:42;19.70;99.90
18444;DHT22;9350;53.176;8.194;2023-06-22T00:19:09;19.70;99.90
18444;DHT22;9350;53.176;8.194;2023-06-22T00:21:37;19.60;99.90
18444;DHT22;9350;53.176;8.194;2023-06-22T00:24:04;19.70;99.90
18444;DHT22;9350;53.176;8.194;2023-06-22T00:26:33;19.60;99.90
18444;DHT22;9350;53.176;8.194;2023-06-22T00:29:00;19.70;99.90
18444;DHT22;9350;53.176;8.194;2023-06-22T00:31:27;19.60;99.90
18444;DHT22;9350;53.176;8.194;2023-06-22T00:33:53;19.70;99.90
18444;DHT22;9350;53.176;8.194;2023-06-22T00:36:20;19.70;99.90
18444;DHT22;9350;53.176;8.194;2023-06-22T00:38:50;19.70;99.90
18444;DHT22;9350;53.176;8.194;2023-06-22T00:41:17;19.70;99.90
18444;DHT22;9350;53.176;8.194;2023-06-22T00:43:45;19.60;99.90
18444;DHT22;9350;53.176;8.194;2023-06-22T00:46:12;19.60;99.90
18444;DHT22;9350;53.176;8.194;2023-06-22T00:48:39;19.60;99.90
18444;DHT22;9350;53.176;8.194;2023-06-22T00:51:09;19.60;99.90
18444;DHT22;9350;53.176;8.194;2023-06-22T00:53:36;19.60;99.90
18444;DHT22;9350;53.176;8.194;2023-06-22T00:56:04;19.50;99.90
18444;DHT22;9350;53.176;8.194;2023-06-22T00:58:32;19.60;99.90
18444;DHT22;9350;53.176;8.194;2023-06-22T01:01:00;19.50;99.90
18444;DHT22;9350;53.176;8.194;2023-06-22T01:03:27;19.50;99.90
18444;DHT22;9350;53.176;8.194;2023-06-22T01:05:56;19.60;99.90
18444;DHT22;9350;53.176;8.194;2023-06-22T01:08:31;19.60;99.90
18444;DHT22;9350;53.176;8.194;2023-06-22T01:11:04;19.60;99.90
18444;DHT22;9350;53.176;8.194;2023-06-22T01:13:40;19.50;99.90
18444;DHT22;9350;53.176;8.194;2023-06-22T01:16:14;19.50;99.90
18444;DHT22;9350;53.176;8.194;2023-06-22T01:18:43;19.50;99.90
18444;DHT22;9350;53.176;8.194;2023-06-22T01:21:14;19.60;99.90
18444;DHT22;9350;53.176;8.194;2023-06-22T01:23:53;19.60;99.90
18444;DHT22;9350;53.176;8.194;2023-06-22T01:26:28;19.60;99.90
18444;DHT22;9350;53.176;8.194;2023-06-22T01:28:59;19.60;99.90
18444;DHT22;9350;53.176;8.194;2023-06-22T01:31:28;19.50;99.90
18444;DHT22;9350;53.176;8.194;2023-06-22T01:33:59;19.50;99.90
18444;DHT22;9350;53.176;8.194;2023-06-22T01:36:27;19.50;99.90
18444;DHT22;9350;53.176;8.194;2023-06-22T01:38:56;19.40;99.90
18444;DHT22;9350;53.176;8.194;2023-06-22T01:41:25;19.50;99.90
18444;DHT22;9350;53.176;8.194;2023-06-22T01:43:53;19.40;99.90
18444;DHT22;9350;53.176;8.194;2023-06-22T01:46:22;19.40;99.90
18444;DHT22;9350;53.176;8.194;2023-06-22T01:48:50;19.30;99.90
18444;DHT22;9350;53.176;8.194;2023-06-22T01:51:17;19.30;99.90
18444;DHT22;9350;53.176;8.194;2023-06-22T01:53:44;19.30;99.90
18444;DHT22;9350;53.176;8.194;2023-06-22T01:56:11;19.30;99.90
18444;DHT22;9350;53.176;8.194;2023-06-22T01:58:48;19.20;99.90
18444;DHT22;9350;53.176;8.194;2023-06-22T02:01:20;19.20;99.90
18444;DHT22;9350;53.176;8.194;2023-06-22T02:03:53;19.20;99.90
18444;DHT22;9350;53.176;8.194;2023-06-22T02:06:27;19.10;99.90
18444;DHT22;9350;53.176;8.194;2023-06-22T02:09:07;19.10;99.90
18444;DHT22;9350;53.176;8.194;2023-06-22T02:11:36;19.10;99.90
18444;DHT22;9350;53.176;8.194;2023-06-22T02:14:04;19.00;99.90
18444;DHT22;9350;53.176;8.194;2023-06-22T02:16:32;19.00;99.90
18444;DHT22;9350;53.176;8.194;2023-06-22T02:19:01;19.00;99.90
18444;DHT22;9350;53.176;8.194;2023-06-22T02:21:30;19.00;99.90
18444;DHT22;9350;53.176;8.194;2023-06-22T02:23:57;19.00;99.90
18444;DHT22;9350;53.176;8.194;2023-06-22T02:26:25;19.00;99.90
18444;DHT22;9350;53.176;8.194;2023-06-22T02:28:51;18.90;99.90
18444;DHT22;9350;53.176;8.194;2023-06-22T02:31:18;18.80;99.90
18444;DHT22;9350;53.176;8.194;2023-06-22T02:33:45;18.90;99.90
18444;DHT22;9350;53.176;8.194;2023-06-22T02:36:13;18.80;99.90
18444;DHT22;9350;53.176;8.194;2023-06-22T02:38:41;18.80;99.90
18444;DHT22;9350;53.176;8.194;2023-06-22T02:41:14;18.80;99.90
18444;DHT22;9350;53.176;8.194;2023-06-22T02:43:44;18.80;99.90
18444;DHT22;9350;53.176;8.194;2023-06-22T02:46:10;18.70;99.90
18444;DHT22;9350;53.176;8.194;2023-06-22T02:48:38;18.70;99.90
18444;DHT22;9350;53.176;8.194;2023-06-22T02:51:05;18.70;99.90
18444;DHT22;9350;53.176;8.194;2023-06-22T02:53:33;18.70;99.90
18444;DHT22;9350;53.176;8.194;2023-06-22T02:56:02;18.70;99.90
18444;DHT22;9350;53.176;8.194;2023-06-22T02:58:30;18.70;99.90
18444;DHT22;9350;53.176;8.194;2023-06-22T03:01:04;18.70;99.90
18444;DHT22;9350;53.176;8.194;2023-06-22T03:03:31;18.70;99.90
18444;DHT22;9350;53.176;8.194;2023-06-22T03:05:58;18.70;99.90
18444;DHT22;9350;53.176;8.194;2023-06-22T03:08:26;18.60;99.90
18444;DHT22;9350;53.176;8.194;2023-06-22T03:10:54;18.50;99.90
18444;DHT22;9350;53.176;8.194;2023-06-22T03:13:21;18.50;99.90
18444;DHT22;9350;53.176;8.194;2023-06-22T03:15:48;18.60;99.90
18444;DHT22;9350;53.176;8.194;2023-06-22T03:18:14;18.50;99.90
18444;DHT22;9350;53.176;8.194;2023-06-22T03:20:42;18.60;99.90
18444;DHT22;9350;53.176;8.194;2023-06-22T03:23:08;18.60;99.90
18444;DHT22;9350;53.176;8.194;2023-06-22T03:25:35;18.70;99.90
18444;DHT22;9350;53.176;8.194;2023-06-22T03:28:04;18.70;99.90
18444;DHT22;9350;53.176;8.194;2023-06-22T03:30:30;18.60;99.90
18444;DHT22;9350;53.176;8.194;2023-06-22T03:32:57;18.60;99.90
18444;DHT22;9350;53.176;8.194;2023-06-22T03:35:24;18.60;99.90
18444;DHT22;9350;53.176;8.194;2023-06-22T03:37:51;18.60;99.90
18444;DHT22;9350;53.176;8.194;2023-06-22T03:40:17;18.50;99.90
18444;DHT22;9350;53.176;8.194;2023-06-22T03:42:44;18.60;99.90
18444;DHT22;9350;53.176;8.194;2023-06-22T03:45:12;18.50;99.90
18444;DHT22;9350;53.176;8.194;2023-06-22T03:47:39;18.60;99.90
18444;DHT22;9350;53.176;8.194;2023-06-22T03:50:06;18.60;99.90
18444;DHT22;9350;53.176;8.194;2023-06-22T03:52:33;18.60;99.90
18444;DHT22;9350;53.176;8.194;2023-06-22T03:55:00;18.60;99.90
18444;DHT22;9350;53.176;8.194;2023-06-22T03:57:26;18.60;99.90
18444;DHT22;9350;53.176;8.194;2023-06-22T03:59:55;18.70;99.90
18444;DHT22;9350;53.176;8.194;2023-06-22T04:02:24;18.80;99.90
18444;DHT22;9350;53.176;8.194;2023-06-22T04:04:51;18.80;99.90
18444;DHT22;9350;53.176;8.194;2023-06-22T04:07:17;18.80;99.90
18444;DHT22;9350;53.176;8.194;2023-06-22T04:09:44;18.90;99.90
18444;DHT22;9350;53.176;8.194;2023-06-22T04:12:11;18.90;99.90
18444;DHT22;9350;53.176;8.194;2023-06-22T04:14:38;18.90;99.90
18444;DHT22;9350;53.176;8.194;2023-06-22T04:17:05;19.00;99.90
18444;DHT22;9350;53.176;8.194;2023-06-22T04:19:33;19.00;99.90
18444;DHT22;9350;53.176;8.194;2023-06-22T04:22:00;19.10;99.90
18444;DHT22;9350;53.176;8.194;2023-06-22T04:24:26;19.00;99.90
18444;DHT22;9350;53.176;8.194;2023-06-22T04:26:53;19.10;99.90
18444;DHT22;9350;53.176;8.194;2023-06-22T04:29:20;19.10;99.90
18444;DHT22;9350;53.176;8.194;2023-06-22T04:31:54;19.10;99.90
18444;DHT22;9350;53.176;8.194;2023-06-22T04:34:23;19.00;99.90
18444;DHT22;9350;53.176;8.194;2023-06-22T04:36:53;19.10;99.90
18444;DHT22;9350;53.176;8.194;2023-06-22T04:39:20;19.10;99.90
18444;DHT22;9350;53.176;8.194;2023-06-22T04:41:46;19.10;99.90
18444;DHT22;9350;53.176;8.194;2023-06-22T04:44:15;19.10;99.90
18444;DHT22;9350;53.176;8.194;2023-06-22T04:46:49;19.20;99.90
18444;DHT22;9350;53.176;8.194;2023-06-22T04:49:20;19.20;99.90
18444;DHT22;9350;53.176;8.194;2023-06-22T04:51:48;19.40;99.90
18444;DHT22;9350;53.176;8.194;2023-06-22T04:54:18;19.30;99.90
18444;DHT22;9350;53.176;8.194;2023-06-22T04:56:45;19.30;99.90
18444;DHT22;9350;53.176;8.194;2023-06-22T04:59:12;19.30;99.90
18444;DHT22;9350;53.176;8.194;2023-06-22T05:01:38;19.30;99.90
18444;DHT22;9350;53.176;8.194;2023-06-22T05:04:05;19.30;99.90
18444;DHT22;9350;53.176;8.194;2023-06-22T05:06:32;19.30;99.90
18444;DHT22;9350;53.176;8.194;2023-06-22T05:08:58;19.40;99.90
18444;DHT22;9350;53.176;8.194;2023-06-22T05:11:27;19.40;99.90
18444;DHT22;9350;53.176;8.194;2023-06-22T05:13:55;19.40;99.90
18444;DHT22;9350;53.176;8.194;2023-06-22T05:16:22;19.40;99.90
18444;DHT22;9350;53.176;8.194;2023-06-22T05:18:51;19.40;99.90
18444;DHT22;9350;53.176;8.194;2023-06-22T05:21:21;19.40;99.90
18444;DHT22;9350;53.176;8.194;2023-06-22T05:23:48;19.40;99.90
18444;DHT22;9350;53.176;8.194;2023-06-22T05:26:15;19.50;99.90
18444;DHT22;9350;53.176;8.194;2023-06-22T05:28:43;19.50;99.90
18444;DHT22;9350;53.176;8.194;2023-06-22T05:31:11;19.50;99.90
18444;DHT22;9350;53.176;8.194;2023-06-22T05:33:38;19.40;99.90
18444;DHT22;9350;53.176;8.194;2023-06-22T05:36:05;19.40;99.90
18444;DHT22;9350;53.176;8.194;2023-06-22T05:38:32;19.50;99.90
18444;DHT22;9350;53.176;8.194;2023-06-22T05:40:59;19.60;99.90
18444;DHT22;9350;53.176;8.194;2023-06-22T05:43:25;19.70;99.90
18444;DHT22;9350;53.176;8.194;2023-06-22T05:45:53;19.80;99.90
18444;DHT22;9350;53.176;8.194;2023-06-22T05:48:20;19.90;99.90
18444;DHT22;9350;53.176;8.194;2023-06-22T05:50:47;19.90;99.90
18444;DHT22;9350;53.176;8.194;2023-06-22T05:53:14;19.90;99.90
18444;DHT22;9350;53.176;8.194;2023-06-22T05:55:40;20.00;99.90
18444;DHT22;9350;53.176;8.194;2023-06-22T05:58:08;20.10;99.90
18444;DHT22;9350;53.176;8.194;2023-06-22T06:00:35;20.10;99.90
18444;DHT22;9350;53.176;8.194;2023-06-22T06:03:03;20.20;99.90
18444;DHT22;9350;53.176;8.194;2023-06-22T06:05:30;20.20;99.90
18444;DHT22;9350;53.176;8.194;2023-06-22T06:07:57;20.30;99.90
18444;DHT22;9350;53.176;8.194;2023-06-22T06:10:24;20.40;99.90
18444;DHT22;9350;53.176;8.194;2023-06-22T06:12:51;20.40;99.90
18444;DHT22;9350;53.176;8.194;2023-06-22T06:15:17;20.50;99.90
18444;DHT22;9350;53.176;8.194;2023-06-22T06:17:47;20.50;99.90
18444;DHT22;9350;53.176;8.194;2023-06-22T06:20:19;20.60;99.90
18444;DHT22;9350;53.176;8.194;2023-06-22T06:22:46;20.60;99.90
18444;DHT22;9350;53.176;8.194;2023-06-22T06:25:13;20.70;99.90
18444;DHT22;9350;53.176;8.194;2023-06-22T06:27:42;20.70;99.90
18444;DHT22;9350;53.176;8.194;2023-06-22T06:30:10;20.80;99.90
18444;DHT22;9350;53.176;8.194;2023-06-22T06:32:37;20.90;99.90
18444;DHT22;9350;53.176;8.194;2023-06-22T06:35:05;20.90;99.90
18444;DHT22;9350;53.176;8.194;2023-06-22T06:37:36;21.00;99.90
18444;DHT22;9350;53.176;8.194;2023-06-22T06:40:03;21.00;99.90
18444;DHT22;9350;53.176;8.194;2023-06-22T06:42:33;21.00;99.90
18444;DHT22;9350;53.176;8.194;2023-06-22T06:45:00;21.00;99.90
18444;DHT22;9350;53.176;8.194;2023-06-22T06:47:26;21.10;99.90
18444;DHT22;9350;53.176;8.194;2023-06-22T06:49:53;21.10;99.90
18444;DHT22;9350;53.176;8.194;2023-06-22T06:52:20;21.30;99.90
18444;DHT22;9350;53.176;8.194;2023-06-22T06:54:48;21.30;99.90
18444;DHT22;9350;53.176;8.194;2023-06-22T06:57:17;21.30;99.90
18444;DHT22;9350;53.176;8.194;2023-06-22T06:59:43;21.40;99.90
18444;DHT22;9350;53.176;8.194;2023-06-22T07:02:10;21.40;99.90
18444;DHT22;9350;53.176;8.194;2023-06-22T07:04:37;21.40;99.90
18444;DHT22;9350;53.176;8.194;2023-06-22T07:07:04;21.40;99.90
18444;DHT22;9350;53.176;8.194;2023-06-22T07:09:31;21.40;99.90
18444;DHT22;9350;53.176;8.194;2023-06-22T07:11:59;21.50;99.90
18444;DHT22;9350;53.176;8.194;2023-06-22T07:14:29;21.40;99.90
18444;DHT22;9350;53.176;8.194;2023-06-22T07:16:57;21.40;99.90
18444;DHT22;9350;53.176;8.194;2023-06-22T07:19:26;21.50;99.90
18444;DHT22;9350;53.176;8.194;2023-06-22T07:21:54;21.50;99.90
18444;DHT22;9350;53.176;8.194;2023-06-22T07:24:21;21.50;99.90
18444;DHT22;9350;53.176;8.194;2023-06-22T07:26:48;21.60;99.90
18444;DHT22;9350;53.176;8.194;2023-06-22T07:29:17;21.70;99.90
18444;DHT22;9350;53.176;8.194;2023-06-22T07:31:44;21.70;99.90
18444;DHT22;9350;53.176;8.194;2023-06-22T07:34:11;21.70;99.90
18444;DHT22;9350;53.176;8.194;2023-06-22T07:36:38;21.70;99.90
18444;DHT22;9350;53.176;8.194;2023-06-22T07:39:05;21.80;99.90
18444;DHT22;9350;53.176;8.194;2023-06-22T07:41:32;21.90;99.90
18444;DHT22;9350;53.176;8.194;2023-06-22T07:43:59;21.90;99.90
18444;DHT22;9350;53.176;8.194;2023-06-22T07:46:27;21.90;99.90
18444;DHT22;9350;53.176;8.194;2023-06-22T07:48:55;21.90;99.90
18444;DHT22;9350;53.176;8.194;2023-06-22T07:51:22;22.00;99.90
18444;DHT22;9350;53.176;8.194;2023-06-22T07:53:49;22.00;99.90
18444;DHT22;9350;53.176;8.194;2023-06-22T07:56:15;22.00;99.90
18444;DHT22;9350;53.176;8.194;2023-06-22T07:58:44;22.10;99.90
18444;DHT22;9350;53.176;8.194;2023-06-22T08:01:11;22.10;99.90
18444;DHT22;9350;53.176;8.194;2023-06-22T08:03:39;22.20;99.90
18444;DHT22;9350;53.176;8.194;2023-06-22T08:06:06;22.30;99.90
18444;DHT22;9350;53.176;8.194;2023-06-22T08:08:34;22.30;99.90
18444;DHT22;9350;53.176;8.194;2023-06-22T08:11:01;22.30;99.90
18444;DHT22;9350;53.176;8.194;2023-06-22T08:13:28;22.30;99.90
18444;DHT22;9350;53.176;8.194;2023-06-22T08:15:55;22.30;99.90
18444;DHT22;9350;53.176;8.194;2023-06-22T08:18:22;22.40;99.90
18444;DHT22;9350;53.176;8.194;2023-06-22T08:20:50;22.50;99.90
18444;DHT22;9350;53.176;8.194;2023-06-22T08:23:17;22.50;99.90
18444;DHT22;9350;53.176;8.194;2023-06-22T08:25:43;22.50;99.90
18444;DHT22;9350;53.176;8.194;2023-06-22T08:28:10;22.50;99.90
18444;DHT22;9350;53.176;8.194;2023-06-22T08:30:38;22.50;99.90
18444;DHT22;9350;53.176;8.194;2023-06-22T08:33:05;22.60;99.90
18444;DHT22;9350;53.176;8.194;2023-06-22T08:35:31;22.60;99.90
18444;DHT22;9350;53.176;8.194;2023-06-22T08:37:59;22.70;99.90
18444;DHT22;9350;53.176;8.194;2023-06-22T08:40:27;22.70;99.90
18444;DHT22;9350;53.176;8.194;2023-06-22T08:42:54;22.70;99.90
18444;DHT22;9350;53.176;8.194;2023-06-22T08:45:21;22.80;99.90
18444;DHT22;9350;53.176;8.194;2023-06-22T08:47:48;22.80;99.90
18444;DHT22;9350;53.176;8.194;2023-06-22T08:50:15;22.80;99.90
18444;DHT22;9350;53.176;8.194;2023-06-22T08:52:42;22.80;99.90
18444;DHT22;9350;53.176;8.194;2023-06-22T08:55:10;22.80;99.90
18444;DHT22;9350;53.176;8.194;2023-06-22T08:57:37;23.00;99.90
18444;DHT22;9350;53.176;8.194;2023-06-22T09:00:06;23.10;99.90
18444;DHT22;9350;53.176;8.194;2023-06-22T09:02:41;23.10;99.90
18444;DHT22;9350;53.176;8.194;2023-06-22T09:05:08;23.10;99.90
18444;DHT22;9350;53.176;8.194;2023-06-22T09:07:35;23.20;99.90
18444;DHT22;9350;53.176;8.194;2023-06-22T09:10:02;23.30;99.90
18444;DHT22;9350;53.176;8.194;2023-06-22T09:12:31;23.40;99.90
18444;DHT22;9350;53.176;8.194;2023-06-22T09:14:58;23.50;99.90
18444;DHT22;9350;53.176;8.194;2023-06-22T09:17:26;23.50;99.90
18444;DHT22;9350;53.176;8.194;2023-06-22T09:19:53;23.50;99.90
18444;DHT22;9350;53.176;8.194;2023-06-22T09:22:20;23.50;99.90
18444;DHT22;9350;53.176;8.194;2023-06-22T09:24:46;23.50;99.90
18444;DHT22;9350;53.176;8.194;2023-06-22T09:27:13;23.50;99.90
18444;DHT22;9350;53.176;8.194;2023-06-22T09:29:41;23.60;99.90
18444;DHT22;9350;53.176;8.194;2023-06-22T09:32:08;23.80;99.90
18444;DHT22;9350;53.176;8.194;2023-06-22T09:34:35;23.80;99.90
18444;DHT22;9350;53.176;8.194;2023-06-22T09:37:02;23.80;99.90
18444;DHT22;9350;53.176;8.194;2023-06-22T09:39:28;23.80;99.90
18444;DHT22;9350;53.176;8.194;2023-06-22T09:41:55;23.80;99.90
18444;DHT22;9350;53.176;8.194;2023-06-22T09:44:22;23.90;99.90
18444;DHT22;9350;53.176;8.194;2023-06-22T09:46:50;23.90;99.90
18444;DHT22;9350;53.176;8.194;2023-06-22T09:49:16;24.00;99.90
18444;DHT22;9350;53.176;8.194;2023-06-22T09:51:43;24.00;99.90
18444;DHT22;9350;53.176;8.194;2023-06-22T09:54:10;24.00;99.90
18444;DHT22;9350;53.176;8.194;2023-06-22T09:56:36;24.00;99.90
18444;DHT22;9350;53.176;8.194;2023-06-22T09:59:03;24.10;99.90
18444;DHT22;9350;53.176;8.194;2023-06-22T10:01:30;24.10;99.90
18444;DHT22;9350;53.176;8.194;2023-06-22T10:03:58;24.00;99.90
18444;DHT22;9350;53.176;8.194;2023-06-22T10:06:25;24.10;99.90
18444;DHT22;9350;53.176;8.194;2023-06-22T10:08:51;24.10;99.90
18444;DHT22;9350;53.176;8.194;2023-06-22T10:11:18;24.20;99.90
18444;DHT22;9350;53.176;8.194;2023-06-22T10:13:45;24.20;99.90
18444;DHT22;9350;53.176;8.194;2023-06-22T10:16:12;24.20;99.90
18444;DHT22;9350;53.176;8.194;2023-06-22T10:18:38;24.30;99.90
18444;DHT22;9350;53.176;8.194;2023-06-22T10:21:06;24.30;99.90
18444;DHT22;9350;53.176;8.194;2023-06-22T10:23:33;24.40;99.90
18444;DHT22;9350;53.176;8.194;2023-06-22T10:26:00;24.40;99.90
18444;DHT22;9350;53.176;8.194;2023-06-22T10:28:27;24.40;99.90
18444;DHT22;9350;53.176;8.194;2023-06-22T10:30:53;24.50;99.90
18444;DHT22;9350;53.176;8.194;2023-06-22T10:33:20;24.40;99.90
18444;DHT22;9350;53.176;8.194;2023-06-22T10:35:47;24.40;99.90
18444;DHT22;9350;53.176;8.194;2023-06-22T10:38:15;24.40;99.90
18444;DHT22;9350;53.176;8.194;2023-06-22T10:40:41;24.50;99.90
18444;DHT22;9350;53.176;8.194;2023-06-22T10:43:08;24.60;99.90
18444;DHT22;9350;53.176;8.194;2023-06-22T10:45:35;24.60;99.90
18444;DHT22;9350;53.176;8.194;2023-06-22T10:48:02;24.70;99.90
18444;DHT22;9350;53.176;8.194;2023-06-22T10:50:29;24.80;99.90
18444;DHT22;9350;53.176;8.194;2023-06-22T10:52:56;24.80;99.90
18444;DHT22;9350;53.176;8.194;2023-06-22T10:55:24;24.80;99.90
18444;DHT22;9350;53.176;8.194;2023-06-22T10:57:50;24.90;99.90
18444;DHT22;9350;53.176;8.194;2023-06-22T11:00:17;24.90;99.90
18444;DHT22;9350;53.176;8.194;2023-06-22T11:02:44;25.00;99.90
18444;DHT22;9350;53.176;8.194;2023-06-22T11:05:11;25.00;99.90
18444;DHT22;9350;53.176;8.194;2023-06-22T11:07:41;25.00;99.90
18444;DHT22;9350;53.176;8.194;2023-06-22T11:10:08;24.90;99.90
18444;DHT22;9350;53.176;8.194;2023-06-22T11:12:36;25.00;99.90
18444;DHT22;9350;53.176;8.194;2023-06-22T11:15:03;25.20;99.90
18444;DHT22;9350;53.176;8.194;2023-06-22T11:17:30;25.20;99.90
18444;DHT22;9350;53.176;8.194;2023-06-22T11:19:57;25.10;99.90
18444;DHT22;9350;53.176;8.194;2023-06-22T11:22:25;25.20;99.90
18444;DHT22;9350;53.176;8.194;2023-06-22T11:24:52;25.30;99.90
18444;DHT22;9350;53.176;8.194;2023-06-22T11:27:19;25.40;99.90
18444;DHT22;9350;53.176;8.194;2023-06-22T11:29:47;25.40;99.90
18444;DHT22;9350;53.176;8.194;2023-06-22T11:32:15;25.50;99.90
18444;DHT22;9350;53.176;8.194;2023-06-22T11:34:42;25.50;99.90
18444;DHT22;9350;53.176;8.194;2023-06-22T11:37:08;25.70;99.90
18444;DHT22;9350;53.176;8.194;2023-06-22T11:39:35;25.80;99.90
18444;DHT22;9350;53.176;8.194;2023-06-22T11:42:02;25.80;99.90
18444;DHT22;9350;53.176;8.194;2023-06-22T11:44:29;25.80;99.90
18444;DHT22;9350;53.176;8.194;2023-06-22T11:46:57;25.80;99.90
18444;DHT22;9350;53.176;8.194;2023-06-22T11:49:24;25.80;99.90
18444;DHT22;9350;53.176;8.194;2023-06-22T11:51:50;25.90;99.90
18444;DHT22;9350;53.176;8.194;2023-06-22T11:54:17;26.00;99.90
18444;DHT22;9350;53.176;8.194;2023-06-22T11:56:44;26.00;99.90
18444;DHT22;9350;53.176;8.194;2023-06-22T11:59:10;26.00;99.90
18444;DHT22;9350;53.176;8.194;2023-06-22T12:01:37;26.00;99.90
18444;DHT22;9350;53.176;8.194;2023-06-22T12:04:05;25.90;99.90
18444;DHT22;9350;53.176;8.194;2023-06-22T12:06:32;25.90;99.90
18444;DHT22;9350;53.176;8.194;2023-06-22T12:09:00;25.90;99.90
18444;DHT22;9350;53.176;8.194;2023-06-22T12:11:30;25.90;99.90
18444;DHT22;9350;53.176;8.194;2023-06-22T12:13:56;25.70;99.90
18444;DHT22;9350;53.176;8.194;2023-06-22T12:16:27;25.60;99.90
18444;DHT22;9350;53.176;8.194;2023-06-22T12:18:53;25.60;99.90
18444;DHT22;9350;53.176;8.194;2023-06-22T12:21:22;25.50;99.90
18444;DHT22;9350;53.176;8.194;2023-06-22T12:23:48;25.50;99.90
18444;DHT22;9350;53.176;8.194;2023-06-22T12:26:16;25.40;99.90
18444;DHT22;9350;53.176;8.194;2023-06-22T12:28:42;25.30;99.90
18444;DHT22;9350;53.176;8.194;2023-06-22T12:31:09;25.30;99.90
18444;DHT22;9350;53.176;8.194;2023-06-22T12:33:36;25.30;99.90
18444;DHT22;9350;53.176;8.194;2023-06-22T12:36:03;25.20;99.90
18444;DHT22;9350;53.176;8.194;2023-06-22T12:38:31;25.20;99.90
18444;DHT22;9350;53.176;8.194;2023-06-22T12:40:58;25.30;99.90
18444;DHT22;9350;53.176;8.194;2023-06-22T12:43:25;25.30;99.90
18444;DHT22;9350;53.176;8.194;2023-06-22T12:45:51;25.30;99.90
18444;DHT22;9350;53.176;8.194;2023-06-22T12:48:19;25.20;99.90
18444;DHT22;9350;53.176;8.194;2023-06-22T12:50:45;25.20;99.90
18444;DHT22;9350;53.176;8.194;2023-06-22T12:53:13;25.30;99.90
18444;DHT22;9350;53.176;8.194;2023-06-22T12:55:41;25.30;99.90
18444;DHT22;9350;53.176;8.194;2023-06-22T12:58:08;25.40;99.90
18444;DHT22;9350;53.176;8.194;2023-06-22T13:00:34;25.30;99.90
18444;DHT22;9350;53.176;8.194;2023-06-22T13:03:01;25.30;99.90
18444;DHT22;9350;53.176;8.194;2023-06-22T13:05:28;25.30;99.90
18444;DHT22;9350;53.176;8.194;2023-06-22T13:07:56;25.40;99.90
18444;DHT22;9350;53.176;8.194;2023-06-22T13:10:22;25.40;99.90
18444;DHT22;9350;53.176;8.194;2023-06-22T13:12:50;25.40;99.90
18444;DHT22;9350;53.176;8.194;2023-06-22T13:15:17;25.40;99.90
18444;DHT22;9350;53.176;8.194;2023-06-22T13:17:44;25.40;99.90
18444;DHT22;9350;53.176;8.194;2023-06-22T13:20:11;25.30;99.90
18444;DHT22;9350;53.176;8.194;2023-06-22T13:22:37;25.30;99.90
18444;DHT22;9350;53.176;8.194;2023-06-22T13:25:08;25.30;99.90
18444;DHT22;9350;53.176;8.194;2023-06-22T13:27:37;25.30;99.90
18444;DHT22;9350;53.176;8.194;2023-06-22T13:30:07;25.20;99.90
18444;DHT22;9350;53.176;8.194;2023-06-22T13:32:34;25.20;99.90
18444;DHT22;9350;53.176;8.194;2023-06-22T13:35:00;25.20;99.90
18444;DHT22;9350;53.176;8.194;2023-06-22T13:37:27;25.20;99.90
18444;DHT22;9350;53.176;8.194;2023-06-22T13:39:54;25.10;99.90
18444;DHT22;9350;53.176;8.194;2023-06-22T13:42:21;25.10;99.90
18444;DHT22;9350;53.176;8.194;2023-06-22T13:44:48;25.00;99.90
18444;DHT22;9350;53.176;8.194;2023-06-22T13:47:16;25.00;99.90
18444;DHT22;9350;53.176;8.194;2023-06-22T13:49:42;24.90;99.90
18444;DHT22;9350;53.176;8.194;2023-06-22T13:52:09;24.80;99.90
18444;DHT22;9350;53.176;8.194;2023-06-22T13:54:38;24.70;99.90
18444;DHT22;9350;53.176;8.194;2023-06-22T13:57:05;24.70;99.90
18444;DHT22;9350;53.176;8.194;2023-06-22T13:59:32;24.70;99.90
18444;DHT22;9350;53.176;8.194;2023-06-22T14:01:59;24.70;99.90
18444;DHT22;9350;53.176;8.194;2023-06-22T14:04:27;24.70;99.90
18444;DHT22;9350;53.176;8.194;2023-06-22T14:06:54;24.70;99.90
18444;DHT22;9350;53.176;8.194;2023-06-22T14:09:21;24.70;99.90
18444;DHT22;9350;53.176;8.194;2023-06-22T14:11:48;24.70;99.90
18444;DHT22;9350;53.176;8.194;2023-06-22T14:14:15;24.70;99.90
18444;DHT22;9350;53.176;8.194;2023-06-22T14:16:41;24.60;99.90
18444;DHT22;9350;53.176;8.194;2023-06-22T14:19:08;24.60;99.90
18444;DHT22;9350;53.176;8.194;2023-06-22T14:21:36;24.50;99.90
18444;DHT22;9350;53.176;8.194;2023-06-22T14:24:03;24.50;99.90
18444;DHT22;9350;53.176;8.194;2023-06-22T14:26:30;24.40;99.90
18444;DHT22;9350;53.176;8.194;2023-06-22T14:28:57;24.30;99.90
18444;DHT22;9350;53.176;8.194;2023-06-22T14:31:24;24.30;99.90
18444;DHT22;9350;53.176;8.194;2023-06-22T14:33:50;24.20;99.90
18444;DHT22;9350;53.176;8.194;2023-06-22T14:36:17;24.10;99.90
18444;DHT22;9350;53.176;8.194;2023-06-22T14:38:45;24.10;99.90
18444;DHT22;9350;53.176;8.194;2023-06-22T14:41:12;24.10;99.90
18444;DHT22;9350;53.176;8.194;2023-06-22T14:43:44;24.00;99.90
18444;DHT22;9350;53.176;8.194;2023-06-22T14:46:11;23.90;99.90
18444;DHT22;9350;53.176;8.194;2023-06-22T14:48:38;23.90;99.90
18444;DHT22;9350;53.176;8.194;2023-06-22T14:51:04;23.80;99.90
18444;DHT22;9350;53.176;8.194;2023-06-22T14:53:31;23.80;99.90
18444;DHT22;9350;53.176;8.194;2023-06-22T14:55:59;23.70;99.90
18444;DHT22;9350;53.176;8.194;2023-06-22T14:58:27;23.70;99.90
18444;DHT22;9350;53.176;8.194;2023-06-22T15:00:54;23.70;99.90
18444;DHT22;9350;53.176;8.194;2023-06-22T15:03:20;23.70;99.90
18444;DHT22;9350;53.176;8.194;2023-06-22T15:05:51;23.70;99.90
18444;DHT22;9350;53.176;8.194;2023-06-22T15:08:17;23.50;99.90
18444;DHT22;9350;53.176;8.194;2023-06-22T15:10:44;23.50;99.90
18444;DHT22;9350;53.176;8.194;2023-06-22T15:13:12;23.50;99.90
18444;DHT22;9350;53.176;8.194;2023-06-22T15:15:39;23.50;99.90
18444;DHT22;9350;53.176;8.194;2023-06-22T15:18:06;23.50;99.90
18444;DHT22;9350;53.176;8.194;2023-06-22T15:20:32;23.50;99.90
18444;DHT22;9350;53.176;8.194;2023-06-22T15:22:59;23.40;99.90
18444;DHT22;9350;53.176;8.194;2023-06-22T15:25:26;23.50;99.90
18444;DHT22;9350;53.176;8.194;2023-06-22T15:27:53;23.50;99.90
18444;DHT22;9350;53.176;8.194;2023-06-22T15:30:21;23.50;99.90
18444;DHT22;9350;53.176;8.194;2023-06-22T15:32:48;23.40;99.90
18444;DHT22;9350;53.176;8.194;2023-06-22T15:35:15;23.30;99.90
18444;DHT22;9350;53.176;8.194;2023-06-22T15:37:44;23.30;99.90
18444;DHT22;9350;53.176;8.194;2023-06-22T15:40:11;23.40;99.90
18444;DHT22;9350;53.176;8.194;2023-06-22T15:42:38;23.40;99.90
18444;DHT22;9350;53.176;8.194;2023-06-22T15:45:11;23.40;99.90
18444;DHT22;9350;53.176;8.194;2023-06-22T15:47:56;23.30;99.90